.
WxDataArchive / Data Records for 2011-11-04
2011-11-03 November 2011 2011-11-05

Data Records for Friday, 04 November 2011

Time	Temp	Chill	HIndex	Humid	Dewpt	 Wind 	HiWind	WindDir	Rain 	Barom 
-----	----	-----	------	-----	-----	------	------	-------	-----	----- 
00:00	46.2	46.2	46.2	70	37.0	1	5	112	0.00	30.080 
00:05	46.2	46.2	46.2	70	37.0	1	4	90	0.00	30.080 
00:10	46.1	46.1	46.1	71	37.2	1	7	90	0.00	30.080 
00:15	46.0	46.0	46.0	71	37.1	0	2	90	0.00	30.084 
00:20	45.8	45.8	45.8	72	37.3	1	4	90	0.00	30.084 
00:25	45.7	45.7	45.7	72	37.2	0	3	90	0.00	30.084 
00:30	45.4	45.4	45.4	73	37.3	1	5	68	0.00	30.087 
00:35	45.4	45.4	45.4	77	38.6	1	3	135	0.00	30.087 
00:40	45.2	45.2	45.2	74	37.4	0	6	135	0.00	30.087 
00:45	45.1	45.1	45.1	74	37.3	0	3	112	0.00	30.089 
00:50	45.1	45.1	45.1	74	37.3	0	4	112	0.00	30.089 
00:55	44.9	44.9	44.9	74	37.1	0	4	112	0.00	30.089 
01:00	44.9	44.9	44.9	74	37.1	0	2	68	0.00	30.096 
01:05	44.8	44.8	44.8	74	37.0	1	5	68	0.00	30.096 
01:10	44.6	44.6	44.6	74	36.8	0	4	90	0.00	30.096 
01:15	44.6	44.6	44.6	73	36.5	1	6	90	0.00	30.097 
01:20	44.6	44.6	44.6	73	36.5	1	4	22	0.00	30.097 
01:25	44.5	44.5	44.5	73	36.4	1	4	90	0.00	30.097 
01:30	44.5	44.5	44.5	73	36.4	1	3	68	0.00	30.106 
01:35	44.3	44.3	44.3	73	36.2	0	4	135	0.00	30.106 
01:40	44.2	44.2	44.2	74	36.4	0	3	135	0.00	30.106 
01:45	44.1	44.1	44.1	74	36.4	0	3	90	0.00	30.105 
01:50	43.9	43.9	43.9	74	36.2	0	4	180	0.00	30.105 
01:55	43.8	43.8	43.8	74	36.1	0	4	68	0.00	30.105 
02:00	43.6	43.6	43.6	74	35.9	1	3	135	0.00	30.107 
02:05	43.6	43.6	43.6	74	35.9	1	4	0	0.00	30.107 
02:10	43.5	43.5	43.5	75	36.1	1	7	90	0.00	30.107 
02:15	43.5	43.5	43.5	75	36.1	2	9	68	0.00	30.106 
02:20	43.3	43.3	43.3	75	35.9	1	6	90	0.00	30.106 
02:25	43.2	43.2	43.2	75	35.8	1	6	112	0.00	30.106 
02:30	43.1	43.1	43.1	75	35.7	1	6	112	0.00	30.109 
02:35	42.9	42.9	42.9	76	35.9	0	6	112	0.00	30.109 
02:40	42.8	42.8	42.8	76	35.8	1	5	90	0.00	30.109 
02:45	42.6	42.6	42.6	76	35.6	2	7	90	0.00	30.119 
02:50	42.6	42.6	42.6	77	35.9	1	4	112	0.00	30.119 
02:55	42.3	42.3	42.3	77	35.6	0	4	112	0.00	30.119 
03:00	42.2	42.2	42.2	77	35.5	0	4	135	0.00	30.123 
03:05	42.1	42.1	42.1	78	35.7	0	3	90	0.00	30.123 
03:10	41.8	41.8	41.8	78	35.5	0	3	90	0.00	30.123 
03:15	41.6	41.6	41.6	79	35.6	0	4	112	0.00	30.126 
03:20	41.5	41.5	41.5	79	35.5	0	2	112	0.00	30.126 
03:25	41.3	41.3	41.3	79	35.3	0	2	68	0.00	30.126 
03:30	41.2	41.2	41.2	79	35.2	1	3	90	0.00	30.137 
03:35	41.1	41.1	41.1	80	35.4	0	2	90	0.00	30.137 
03:40	40.9	40.9	40.9	80	35.2	1	4	112	0.00	30.137 
03:45	40.8	40.8	40.8	80	35.1	0	1	112	0.00	30.137 
03:50	40.6	40.6	40.6	81	35.2	0	2	112	0.00	30.137 
03:55	40.5	40.5	40.5	81	35.1	0	3	45	0.00	30.137 
04:00	40.3	40.3	40.3	81	34.9	0	2	68	0.00	30.141 
04:05	40.2	40.2	40.2	81	34.8	0	5	112	0.00	30.141 
04:10	40.1	40.1	40.1	81	34.7	0	4	135	0.00	30.141 
04:15	39.9	39.9	39.9	81	34.6	0	2	135	0.00	30.147 
04:20	39.8	39.8	39.8	82	34.8	0	1	45	0.00	30.147 
04:25	39.6	39.6	39.6	82	34.6	1	4	90	0.00	30.147 
04:30	39.5	39.5	39.5	82	34.5	0	1	90	0.00	30.148 
04:35	39.2	39.2	39.2	82	34.2	0	1	90	0.00	30.148 
04:40	39.1	39.1	39.1	83	34.4	0	1	90	0.00	30.148 
04:45	38.9	38.9	38.9	83	34.2	0	1	90	0.00	30.153 
04:50	38.6	38.6	38.6	83	33.9	0	1	90	0.00	30.153 
04:55	38.5	38.5	38.5	84	34.1	0	1	90	0.00	30.153 
05:00	38.5	38.5	38.5	84	34.1	0	2	90	0.00	30.153 
05:05	38.3	38.3	38.3	84	33.9	0	1	90	0.00	30.153 
05:10	38.2	38.2	38.2	84	33.8	0	1	315	0.00	30.153 
05:15	38.2	38.2	38.2	84	33.8	0	2	0	0.00	30.158 
05:20	38.0	38.0	38.0	84	33.6	0	1	338	0.00	30.158 
05:25	37.9	37.9	37.9	84	33.5	0	2	338	0.00	30.158 
05:30	37.9	37.9	37.9	84	33.5	1	4	112	0.00	30.162 
05:35	37.8	37.8	37.8	84	33.4	0	2	45	0.00	30.162 
05:40	37.6	37.6	37.6	84	33.2	0	7	45	0.00	30.162 
05:45	37.5	37.5	37.5	84	33.1	0	1	112	0.00	30.175 
05:50	37.5	37.5	37.5	84	33.1	0	1	112	0.00	30.175 
05:55	37.3	37.3	37.3	84	32.9	0	3	112	0.00	30.175 
06:00	37.3	37.3	37.3	85	33.2	0	4	135	0.00	30.186 
06:05	37.3	37.3	37.3	85	33.2	0	3	135	0.00	30.186 
06:10	37.3	37.3	37.3	84	32.9	0	3	90	0.00	30.186 
06:15	37.3	37.3	37.3	85	33.2	1	4	90	0.00	30.194 
06:20	37.3	37.3	37.3	84	32.9	0	1	112	0.00	30.194 
06:25	37.2	37.2	37.2	84	32.8	0	3	90	0.00	30.194 
06:30	37.2	37.2	37.2	84	32.8	1	5	90	0.00	30.197 
06:35	37.0	37.0	37.0	84	32.6	0	3	68	0.00	30.197 
06:40	37.0	37.0	37.0	84	32.6	0	1	112	0.00	30.197 
06:45	37.0	37.0	37.0	84	32.6	1	3	112	0.00	30.202 
06:50	37.0	37.0	37.0	84	32.6	0	3	112	0.00	30.202 
06:55	36.9	36.9	36.9	84	32.5	0	4	68	0.00	30.202 
07:00	36.9	36.9	36.9	85	32.8	0	2	68	0.00	30.198 
07:05	36.9	36.9	36.9	85	32.8	0	4	68	0.00	30.198 
07:10	36.8	36.8	36.8	85	32.7	0	1	90	0.00	30.198 
07:15	36.6	36.6	36.6	85	32.5	0	1	90	0.00	30.204 
07:20	36.6	36.6	36.6	85	32.5	0	1	90	0.00	30.204 
07:25	36.5	36.5	36.5	85	32.4	0	1	90	0.00	30.204 
07:30	36.5	36.5	36.5	86	32.7	0	2	90	0.00	30.203 
07:35	36.3	36.3	36.3	86	32.5	0	2	90	0.00	30.203 
07:40	36.3	36.3	36.3	86	32.5	0	2	90	0.00	30.203 
07:45	36.3	36.3	36.3	86	32.5	0	2	90	0.00	30.205 
07:50	36.3	36.3	36.3	86	32.5	0	1	90	0.00	30.205 
07:55	36.3	36.3	36.3	86	32.5	0	1	90	0.00	30.205 
08:00	36.2	36.2	36.2	86	32.4	0	2	90	0.00	30.209 
08:05	36.2	36.2	36.2	86	32.4	0	1	90	0.00	30.209 
08:10	36.2	36.2	36.2	86	32.4	0	2	90	0.00	30.209 
08:15	36.0	36.0	36.0	86	32.2	0	1	90	0.00	30.212 
08:20	35.9	35.9	35.9	87	32.4	0	0	---	0.00	30.212 
08:25	35.9	35.9	35.9	87	32.4	0	0	---	0.00	30.212 
08:30	35.8	35.8	35.8	87	32.3	0	1	90	0.00	30.220 
08:35	35.8	35.8	35.8	87	32.3	0	1	90	0.00	30.220 
08:40	35.8	35.8	35.8	87	32.3	0	0	---	0.00	30.220 
08:45	35.8	35.8	35.8	88	32.6	0	1	90	0.00	30.225 
08:50	35.9	35.9	35.9	88	32.7	0	0	---	0.00	30.225 
08:55	36.0	36.0	36.0	88	32.8	0	1	90	0.00	30.225 
09:00	36.3	36.3	36.3	88	33.1	0	3	90	0.00	30.231 
09:05	36.6	36.6	36.6	87	33.1	0	2	45	0.00	30.231 
09:10	36.9	36.9	36.9	87	33.4	0	1	45	0.00	30.231 
09:15	37.2	37.2	37.2	87	33.7	0	1	45	0.00	30.243 
09:20	37.5	37.5	37.5	86	33.7	0	2	45	0.00	30.243 
09:25	37.8	37.8	37.8	86	34.0	0	3	45	0.00	30.243 
09:30	38.3	38.3	38.3	84	33.9	1	3	112	0.00	30.254 
09:35	38.9	38.9	38.9	83	34.2	1	4	90	0.00	30.254 
09:40	39.2	39.2	39.2	82	34.2	0	1	90	0.00	30.254 
09:45	39.3	39.3	39.3	81	34.0	0	6	68	0.00	30.260 
09:50	39.6	39.6	39.6	81	34.3	0	2	68	0.00	30.260 
09:55	40.1	40.1	40.1	80	34.4	1	4	68	0.00	30.260 
10:00	40.5	40.5	40.5	79	34.5	1	5	90	0.00	30.265 
10:05	41.1	41.1	41.1	78	34.8	1	5	112	0.00	30.265 
10:10	41.5	41.5	41.5	77	34.8	1	4	112	0.00	30.265 
10:15	41.8	41.8	41.8	76	34.8	2	6	68	0.00	30.269 
10:20	42.1	42.1	42.1	76	35.1	1	4	112	0.00	30.269 
10:25	42.5	42.5	42.5	76	35.5	1	3	68	0.00	30.269 
10:30	43.1	43.1	43.1	75	35.7	2	6	112	0.00	30.274 
10:35	43.3	43.3	43.3	74	35.6	2	9	90	0.00	30.274 
10:40	43.8	43.8	43.8	72	35.4	2	6	90	0.00	30.274 
10:45	44.1	44.1	44.1	70	35.0	2	11	90	0.00	30.277 
10:50	44.2	44.2	44.2	70	35.0	3	8	68	0.00	30.277 
10:55	44.6	44.6	44.6	68	34.7	2	5	90	0.00	30.277 
11:00	45.1	45.1	45.1	67	34.8	2	6	90	0.00	30.279 
11:05	45.4	45.4	45.4	66	34.7	2	8	112	0.00	30.279 
11:10	45.5	45.5	45.5	63	33.6	2	7	90	0.00	30.279 
11:15	45.7	45.7	45.7	59	32.2	3	10	90	0.00	30.274 
11:20	45.7	43.9	45.7	57	31.3	4	13	90	0.00	30.274 
11:25	45.7	43.9	45.7	58	31.8	4	12	90	0.00	30.274 
11:30	46.1	46.1	46.1	60	33.0	1	5	112	0.00	30.279 
11:35	46.2	46.2	46.2	57	31.8	3	12	90	0.00	30.279 
11:40	46.5	46.5	46.5	59	33.0	2	6	90	0.00	30.279 
11:45	46.5	46.5	46.5	54	30.8	2	9	90	0.00	30.283 
11:50	46.5	46.5	46.5	54	30.8	2	6	112	0.00	30.283 
11:55	46.7	46.7	46.7	51	29.5	3	9	90	0.00	30.283 
12:00	46.8	45.2	46.8	50	29.2	4	10	112	0.00	30.282 
12:05	47.0	45.4	47.0	48	28.3	4	12	90	0.00	30.282 
12:10	47.1	47.1	47.1	50	29.4	2	9	90	0.00	30.282 
12:15	47.1	44.8	47.1	48	28.4	5	10	90	0.00	30.280 
12:20	47.3	44.5	47.3	47	28.1	6	12	90	0.00	30.280 
12:25	47.4	47.4	47.4	47	28.2	3	10	90	0.00	30.280 
12:30	47.6	46.1	47.6	46	27.9	4	10	112	0.00	30.286 
12:35	47.7	46.2	47.7	47	28.5	4	11	90	0.00	30.286 
12:40	48.0	48.0	48.0	47	28.7	3	10	90	0.00	30.286 
12:45	48.2	48.2	48.2	48	29.4	3	9	90	0.00	30.286 
12:50	48.5	48.5	48.5	48	29.7	3	7	90	0.00	30.286 
12:55	48.8	48.8	48.8	47	29.5	3	10	90	0.00	30.286 
13:00	48.9	48.9	48.9	46	29.0	2	7	112	0.00	30.282 
13:05	49.2	49.2	49.2	44	28.2	3	6	90	0.00	30.282 
13:10	49.2	47.9	49.2	42	27.1	4	10	90	0.00	30.282 
13:15	49.5	49.5	49.5	44	28.5	2	5	90	0.00	30.281 
13:20	49.8	49.8	49.8	43	28.2	3	6	90	0.00	30.281 
13:25	49.6	48.4	49.6	40	26.3	4	10	112	0.00	30.281 
13:30	49.6	48.4	49.6	42	27.5	4	6	112	0.00	30.282 
13:35	49.5	49.5	49.5	45	29.0	3	10	90	0.00	30.282 
13:40	49.6	49.6	49.6	41	26.9	2	8	90	0.00	30.282 
13:45	49.8	49.8	49.8	41	27.1	3	6	90	0.00	30.282 
13:50	49.9	49.9	49.9	44	28.9	2	6	90	0.00	30.282 
13:55	49.9	49.9	49.9	42	27.7	3	7	90	0.00	30.282 
14:00	50.1	50.1	50.1	44	29.0	3	7	90	0.00	30.281 
14:05	50.2	50.2	50.2	45	29.7	1	4	90	0.00	30.281 
14:10	50.5	50.5	50.5	44	29.4	1	5	112	0.00	30.281 
14:15	50.5	50.5	50.5	44	29.4	2	5	112	0.00	30.283 
14:20	50.5	50.5	50.5	43	28.8	3	11	90	0.00	30.283 
14:25	50.5	50.5	50.5	42	28.3	2	12	90	0.00	30.283 
14:30	50.7	50.7	50.7	45	30.1	1	5	68	0.00	30.281 
14:35	50.7	50.7	50.7	46	30.7	1	3	112	0.00	30.281 
14:40	50.8	50.8	50.8	44	29.7	3	7	90	0.00	30.281 
14:45	51.1	51.1	51.1	45	30.5	1	4	90	0.00	30.283 
14:50	50.8	50.8	50.8	43	29.1	2	9	135	0.00	30.283 
14:55	50.8	50.8	50.8	44	29.7	1	4	158	0.00	30.283 
15:00	50.8	50.8	50.8	43	29.1	3	6	90	0.00	30.280 
15:05	50.5	50.5	50.5	43	28.8	2	9	90	0.00	30.280 
15:10	50.7	50.7	50.7	45	30.1	1	4	90	0.00	30.280 
15:15	50.8	50.8	50.8	42	28.5	3	7	112	0.00	30.274 
15:20	50.8	50.8	50.8	42	28.5	2	10	68	0.00	30.274 
15:25	51.0	51.0	51.0	42	28.7	1	4	90	0.00	30.274 
15:30	51.0	51.0	51.0	41	28.1	2	9	112	0.00	30.271 
15:35	51.0	51.0	51.0	39	26.9	2	6	112	0.00	30.271 
15:40	51.0	51.0	51.0	37	25.7	2	5	135	0.00	30.271 
15:45	51.0	51.0	51.0	35	24.3	2	6	90	0.00	30.275 
15:50	51.0	51.0	51.0	35	24.3	2	8	112	0.00	30.275 
15:55	51.0	51.0	51.0	36	25.0	1	4	135	0.00	30.275 
16:00	51.0	51.0	51.0	34	23.6	4	13	90	0.00	30.271 
16:05	51.1	51.1	51.1	39	27.0	1	5	90	0.00	30.271 
16:10	51.1	51.1	51.1	35	24.4	2	6	112	0.00	30.271 
16:15	51.1	51.1	51.1	34	23.7	3	9	112	0.00	30.274 
16:20	51.0	51.0	51.0	32	22.2	4	11	112	0.00	30.274 
16:25	51.0	51.0	51.0	33	22.9	3	9	68	0.00	30.274 
16:30	51.1	51.1	51.1	35	24.4	2	6	68	0.00	30.277 
16:35	51.1	51.1	51.1	35	24.4	2	6	90	0.00	30.277 
16:40	51.0	51.0	51.0	33	22.9	2	7	90	0.00	30.277 
16:45	50.7	50.7	50.7	33	22.7	4	7	90	0.00	30.280 
16:50	50.4	50.4	50.4	33	22.4	3	7	112	0.00	30.280 
16:55	50.2	50.2	50.2	34	22.9	2	7	112	0.00	30.280 
17:00	50.1	50.1	50.1	32	21.4	3	9	90	0.00	30.283 
17:05	50.1	50.1	50.1	33	22.1	2	7	90	0.00	30.283 
17:10	50.1	50.1	50.1	35	23.5	1	5	112	0.00	30.283 
17:15	49.9	49.9	49.9	34	22.7	2	5	112	0.00	30.287 
17:20	49.9	49.9	49.9	33	22.0	2	7	90	0.00	30.287 
17:25	49.8	49.8	49.8	33	21.9	2	7	90	0.00	30.287 
17:30	49.8	49.8	49.8	32	21.1	3	7	90	0.00	30.287 
17:35	49.6	49.6	49.6	34	22.4	2	6	90	0.00	30.287 
17:40	49.6	49.6	49.6	34	22.4	2	7	90	0.00	30.287 
17:45	49.5	49.5	49.5	35	23.0	2	7	112	0.00	30.288 
17:50	49.2	49.2	49.2	34	22.0	2	6	112	0.00	30.288 
17:55	49.1	49.1	49.1	35	22.6	1	5	112	0.00	30.288 
18:00	48.8	48.8	48.8	35	22.4	2	7	90	0.00	30.290 
18:05	48.5	48.5	48.5	35	22.1	2	5	112	0.00	30.290 
18:10	48.2	48.2	48.2	36	22.5	1	4	68	0.00	30.290 
18:15	47.7	47.7	47.7	36	22.1	1	3	68	0.00	30.292 
18:20	47.3	47.3	47.3	38	23.0	1	3	112	0.00	30.292 
18:25	47.0	47.0	47.0	38	22.7	1	4	112	0.00	30.292 
18:30	46.5	46.5	46.5	39	22.9	1	4	112	0.00	30.295 
18:35	46.2	46.2	46.2	40	23.2	1	3	112	0.00	30.295 
18:40	46.0	46.0	46.0	40	23.0	1	3	112	0.00	30.295 
18:45	45.7	45.7	45.7	41	23.4	0	2	112	0.00	30.301 
18:50	45.2	45.2	45.2	42	23.5	0	2	112	0.00	30.301 
18:55	44.8	44.8	44.8	42	23.1	0	1	112	0.00	30.301 
19:00	44.3	44.3	44.3	43	23.2	0	1	112	0.00	30.306 
19:05	43.9	43.9	43.9	44	23.4	0	1	112	0.00	30.306 
19:10	43.6	43.6	43.6	44	23.1	0	0	---	0.00	30.306 
19:15	43.3	43.3	43.3	45	23.4	0	0	---	0.00	30.313 
19:20	42.8	42.8	42.8	46	23.5	0	0	---	0.00	30.313 
19:25	42.3	42.3	42.3	47	23.5	0	0	---	0.00	30.313 
19:30	41.9	41.9	41.9	47	23.2	0	0	---	0.00	30.318 
19:35	41.3	41.3	41.3	49	23.6	0	0	---	0.00	30.318 
19:40	40.8	40.8	40.8	49	23.1	0	0	---	0.00	30.318 
19:45	40.5	40.5	40.5	50	23.3	0	0	---	0.00	30.326 
19:50	40.1	40.1	40.1	51	23.4	0	0	---	0.00	30.326 
19:55	39.8	39.8	39.8	52	23.6	0	0	---	0.00	30.326 
20:00	39.3	39.3	39.3	53	23.6	0	0	---	0.00	30.328 
20:05	39.1	39.1	39.1	55	24.3	0	0	---	0.00	30.328 
20:10	38.6	38.6	38.6	57	24.7	0	0	---	0.00	30.328 
20:15	38.2	38.2	38.2	58	24.7	0	0	---	0.00	30.325 
20:20	37.9	37.9	37.9	59	24.9	0	0	---	0.00	30.325 
20:25	37.6	37.6	37.6	60	25.0	0	1	112	0.00	30.325 
20:30	37.6	37.6	37.6	60	25.0	0	0	---	0.00	30.319 
20:35	37.6	37.6	37.6	60	25.0	0	1	112	0.00	30.319 
20:40	37.9	37.9	37.9	59	24.9	0	1	112	0.00	30.319 
20:45	37.9	37.9	37.9	59	24.9	0	0	---	0.00	30.323 
20:50	37.9	37.9	37.9	60	25.3	0	0	---	0.00	30.323 
20:55	37.8	37.8	37.8	60	25.2	0	0	---	0.00	30.323 
21:00	37.6	37.6	37.6	61	25.4	0	0	---	0.00	30.319 
21:05	37.3	37.3	37.3	61	25.1	0	0	---	0.00	30.319 
21:10	37.2	37.2	37.2	61	25.0	0	0	---	0.00	30.319 
21:15	37.0	37.0	37.0	62	25.2	0	0	---	0.00	30.320 
21:20	36.9	36.9	36.9	62	25.1	0	0	---	0.00	30.320 
21:25	36.6	36.6	36.6	63	25.2	0	0	---	0.00	30.320 
21:30	36.5	36.5	36.5	63	25.1	0	0	---	0.00	30.325 
21:35	36.2	36.2	36.2	64	25.2	0	0	---	0.00	30.325 
21:40	35.9	35.9	35.9	64	24.9	0	0	---	0.00	30.325 
21:45	35.6	35.6	35.6	66	25.4	0	0	---	0.00	30.326 
21:50	35.3	35.3	35.3	67	25.5	0	0	---	0.00	30.326 
21:55	35.0	35.0	35.0	68	25.5	0	0	---	0.00	30.326 
22:00	34.9	34.9	34.9	68	25.4	0	0	---	0.00	30.328 
22:05	34.7	34.7	34.7	69	25.6	0	0	---	0.00	30.328 
22:10	34.6	34.6	34.6	70	25.8	0	0	---	0.00	30.328 
22:15	34.3	34.3	34.3	70	25.5	0	0	---	0.00	30.326 
22:20	34.1	34.1	34.1	71	25.7	0	0	---	0.00	30.326 
22:25	33.8	33.8	33.8	71	25.4	0	0	---	0.00	30.326 
22:30	33.7	33.7	33.7	72	25.7	0	0	---	0.00	30.326 
22:35	33.5	33.5	33.5	72	25.5	0	0	---	0.00	30.326 
22:40	33.2	33.2	33.2	72	25.2	0	0	---	0.00	30.326 
22:45	33.1	33.1	33.1	72	25.1	0	0	---	0.00	30.327 
22:50	32.9	32.9	32.9	73	25.2	0	0	---	0.00	30.327 
22:55	32.9	32.9	32.9	73	25.2	0	0	---	0.00	30.327 
23:00	32.8	32.8	32.8	73	25.1	0	0	---	0.00	30.331 
23:05	32.7	32.7	32.7	73	25.0	0	0	---	0.00	30.331 
23:10	32.7	32.7	32.7	74	25.3	0	0	---	0.00	30.331 
23:15	32.5	32.5	32.5	75	25.5	0	0	---	0.00	30.331 
23:20	32.5	32.5	32.5	75	25.5	0	0	---	0.00	30.331 
23:25	32.4	32.4	32.4	76	25.7	0	0	---	0.00	30.331 
23:30	32.2	32.2	32.2	76	25.5	0	0	---	0.00	30.329 
23:35	32.1	32.1	32.1	77	25.7	0	0	---	0.00	30.329 
23:40	32.1	32.1	32.1	77	25.7	0	0	---	0.00	30.329 
23:45	31.9	31.9	31.9	77	25.5	0	0	---	0.00	30.329 
23:50	31.8	31.8	31.8	77	25.4	0	0	---	0.00	30.329 
23:55	31.6	31.6	31.6	78	25.5	0	0	---	0.00	30.329 

CoCoRaHS
IN-AL-39
A2 Web Hosting
Creative Commons License
GoDaddy
search engine by freefind advanced

loaded 2018-11-16 01:14:04 • last modified 2010-11-18 10:43:29
Privacy PolicyDisclaimer
• wx.awcolley.com is powered by PmWiki v.2002016 •
• all content (unless otherwise noted) © 2018 A W Colley